Flight Track Log - Related Links

Times and Time Zones

All times are in EST time to prevent confusion due to time zone crossing. See the ASP298 flight status page for this flight to view local times or setup timezone preferences in your user account.

Time Position Orientation Groundspeed Altitude Reporting Facility
EST Latitude Longitude Course Direction KTS MPH feet Rate Location/Type
Fri 11:33:54 AM 51.1000 -114.0667 175° South 150 173 3,900  Level Edmonton Center
Fri 11:34:54 AM 51.1167 -114.1167 298° West 180 207 7,400 2,800 Climbing Edmonton Center
Fri 11:35:54 AM 51.0500 -114.1667 205° Southwest 260 299 9,500 2,400 Climbing Edmonton Center
Fri 11:36:54 AM 50.9667 -114.1500 173° South 300 345 12,200 2,650 Climbing Edmonton Center
Fri 11:37:54 AM 50.9000 -114.1333 171° South 310 357 14,800 2,700 Climbing Edmonton Center
Fri 11:38:54 AM 50.8000 -114.1167 174° South 330 380 17,600 2,900 Climbing Edmonton Center
Fri 11:39:00 AM 50.4395 -114.1489 175° South  Level Estimated
Fri 11:39:54 AM 50.7000 -114.0833 168° South 350 403 20,600  Level Edmonton Center
Fri 11:40:54 AM 50.6167 -114.0667 173° South 350 403 23,400 2,900 Climbing Edmonton Center
Fri 11:41:54 AM 50.5167 -114.0500 174° South 340 391 26,400 2,500 Climbing Edmonton Center
Fri 11:42:54 AM 50.4167 -114.0333 174° South 340 391 28,400 1,850 Climbing Edmonton Center
Fri 11:43:54 AM 50.3167 -114.0167 174° South 350 403 30,100 1,350 Climbing Edmonton Center
Fri 11:44:54 AM 50.2167 -113.9833 168° South 370 426 31,100 1,100 Climbing Edmonton Center
Fri 11:45:54 AM 50.1167 -113.9667 174° South 380 437 32,300 1,150 Climbing Edmonton Center
Fri 11:46:54 AM 50.0000 -113.9500 175° South 390 449 33,400 1,100 Climbing Edmonton Center
Fri 11:47:54 AM 49.9000 -113.9333 174° South 390 449 34,500 1,150 Climbing Edmonton Center
Fri 11:48:54 AM 49.7833 -113.9000 170° South 390 449 35,700 1,150 Climbing Edmonton Center
Fri 11:49:54 AM 49.6833 -113.8833 174° South 380 437 36,800 1,050 Climbing Edmonton Center
Fri 11:50:54 AM 49.5667 -113.8667 175° South 380 437 37,800 950 Climbing Edmonton Center
Fri 11:51:54 AM 49.4667 -113.8667 180° South 380 437 38,700 900 Climbing Edmonton Center
Fri 11:52:54 AM 49.3667 -113.8500 174° South 390 449 39,600 750 Climbing Edmonton Center
Fri 11:53:54 AM 49.2500 -113.8167 169° South 380 437 40,200 200 Climbing Edmonton Center
Fri 11:54:54 AM 49.1500 -113.8000 174° South 390 449 40,000 -100 Descending Edmonton Center
Fri 11:55:54 AM 49.0333 -113.7833 175° South 410 472 40,000  Level Edmonton Center
Fri 11:56:54 AM 48.9167 -113.7667 175° South 420 483 40,000  Level Edmonton Center
Fri 11:57:55 AM 48.8000 -113.7333 169° South 430 495 40,000  Level Edmonton Center
Fri 11:58:55 AM 48.6833 -113.7167 175° South 430 495 40,000  Level Edmonton Center
Fri 11:59:25 AM 48.6594 -113.6825 137° Southeast 434 499 40,000  Level Salt Lake Center
Fri 12:00:27 PM 48.5378 -113.6606 173° South 438 504 40,000  Level Salt Lake Center
Fri 12:01:28 PM 48.4153 -113.6406 174° South 440 506 40,000  Level Salt Lake Center
Fri 12:02:30 PM 48.2933 -113.6194 173° South 441 507 40,000  Level Salt Lake Center
Fri 12:03:32 PM 48.1731 -113.5978 173° South 435 501 40,000  Level Salt Lake Center
Fri 12:04:34 PM 48.0533 -113.5767 173° South 432 497 40,000 -48 Level Salt Lake Center
Fri 12:05:36 PM 47.9083 -113.5519 173° South 434 499 39,900  Descending Salt Lake Center
Fri 12:06:38 PM 47.7892 -113.5311 173° South 432 497 40,000 48 Climbing Salt Lake Center
Fri 12:07:40 PM 47.6697 -113.5122 174° South 430 495 40,000  Level Salt Lake Center
Fri 12:08:42 PM 47.5497 -113.4917 173° South 434 499 40,000  Level Salt Lake Center
Fri 12:09:44 PM 47.4281 -113.4703 173° South 438 504 40,000  Level Salt Lake Center
Fri 12:10:45 PM 47.3064 -113.4506 174° South 439 505 40,000  Level Salt Lake Center
Fri 12:11:47 PM 47.1822 -113.4289 173° South 437 503 40,000  Level Salt Lake Center
Fri 12:12:49 PM 47.0419 -113.4064 174° South 433 498 40,000  Level Salt Lake Center
Fri 12:13:51 PM 46.9231 -113.3864 173° South 431 496 40,000  Level Salt Lake Center
Fri 12:14:53 PM 46.8044 -113.3664 173° South 430 495 40,000  Level Salt Lake Center
Fri 12:15:56 PM 46.6844 -113.3467 174° South 432 497 40,000  Level Salt Lake Center
Fri 12:16:57 PM 46.5650 -113.3286 174° South 432 497 40,000  Level Salt Lake Center
Fri 12:17:59 PM 46.4475 -113.3083 173° South 429 494 40,000  Level Salt Lake Center
Fri 12:19:01 PM 46.3286 -113.2886 173° South 430 495 40,000  Level Salt Lake Center
Fri 12:20:03 PM 46.1844 -113.2661 174° South 434 499 40,000  Level Salt Lake Center
Fri 12:21:05 PM 46.0564 -113.2453 174° South 448 516 40,000  Level Salt Lake Center
Fri 12:22:07 PM 45.9358 -113.2247 173° South 434 499 40,000  Level Salt Lake Center
Fri 12:23:09 PM 45.8131 -113.2056 174° South 436 502 40,000  Level Salt Lake Center
Fri 12:24:11 PM 45.6769 -113.1833 173° South 445 512 40,000  Level Salt Lake Center
Fri 12:25:13 PM 45.5528 -113.1633 174° South 443 510 40,000  Level Salt Lake Center
Fri 12:26:15 PM 45.4297 -113.1431 173° South 439 505 40,000  Level Salt Lake Center
Fri 12:27:17 PM 45.3056 -113.1247 174° South 439 505 40,000  Level Salt Lake Center
Fri 12:28:19 PM 45.1906 -113.1056 173° South 437 503 40,000  Level Salt Lake Center
Fri 12:29:21 PM 45.0553 -113.0839 174° South 439 505 40,000  Level Salt Lake Center
Fri 12:30:23 PM 44.9381 -113.0664 174° South 443 510 40,000  Level Salt Lake Center
Fri 12:31:25 PM 44.8017 -113.0456 174° South 441 507 40,000  Level Salt Lake Center
Fri 12:32:27 PM 44.6833 -113.0264 173° South 448 516 40,000  Level Salt Lake Center
Fri 12:33:29 PM 44.5453 -113.0058 174° South 449 517 40,000  Level Salt Lake Center
Fri 12:34:32 PM 44.4267 -112.9881 174° South 448 516 40,000  Level Salt Lake Center
Fri 12:35:33 PM 44.2858 -112.9664 174° South 456 525 40,000  Level Salt Lake Center
Fri 12:36:35 PM 44.1683 -112.9489 174° South 450 518 40,000  Level Salt Lake Center
Fri 12:37:37 PM 44.0306 -112.9275 174° South 446 513 40,000  Level Salt Lake Center
Fri 12:38:39 PM 43.9144 -112.9100 174° South 442 509 40,000  Level Salt Lake Center
Fri 12:39:41 PM 43.7819 -112.8908 174° South 432 497 40,000  Level Salt Lake Center
Fri 12:40:43 PM 43.6686 -112.8739 174° South 429 494 40,000  Level Salt Lake Center
Fri 12:41:45 PM 43.5372 -112.8556 174° South 427 491 40,000  Level Salt Lake Center
Fri 12:42:47 PM 43.4242 -112.8392 174° South 427 491 40,000  Level Salt Lake Center
Fri 12:43:49 PM 43.3075 -112.8208 173° South 438 504 40,000  Level Salt Lake Center
Fri 12:44:51 PM 43.1708 -112.8019 174° South 442 509 40,000  Level Salt Lake Center
Fri 12:45:53 PM 43.0547 -112.7842 174° South 441 507 40,000  Level Salt Lake Center
Fri 12:46:55 PM 42.9175 -112.7644 174° South 441 507 40,000  Level Salt Lake Center
Fri 12:47:57 PM 42.8017 -112.7478 174° South 439 505 40,000  Level Salt Lake Center
Fri 12:48:59 PM 42.6631 -112.7281 174° South 433 498 40,000  Level Salt Lake Center
Fri 12:50:01 PM 42.5436 -112.7106 174° South 432 497 40,000  Level Salt Lake Center
Fri 12:51:03 PM 42.4258 -112.6947 174° South 427 491 40,000  Level Salt Lake Center
Fri 12:52:05 PM 42.3069 -112.6764 173° South 430 495 40,000  Level Salt Lake Center
Fri 12:53:07 PM 42.1875 -112.6608 174° South 432 497 40,000  Level Salt Lake Center
Fri 12:54:09 PM 42.0692 -112.6444 174° South 429 494 40,000  Level Salt Lake Center
Fri 12:55:11 PM 41.9267 -112.6242 174° South 430 495 40,000  Level Salt Lake Center
Fri 12:56:13 PM 41.8083 -112.6086 174° South 430 495 40,000  Level Salt Lake Center
Fri 12:57:15 PM 41.6925 -112.5922 174° South 424 488 40,000  Level Salt Lake Center
Fri 12:58:17 PM 41.5792 -112.5761 174° South 415 478 40,000  Level Salt Lake Center
Fri 12:59:19 PM 41.4658 -112.5606 174° South 411 473 40,000  Level Salt Lake Center
Fri 01:00:21 PM 41.3531 -112.5450 174° South 410 472 40,000  Level Salt Lake Center
Fri 01:01:23 PM 41.2167 -112.5322 176° South 409 471 40,000  Level Salt Lake Center
Fri 01:02:25 PM 41.1028 -112.5397 183° South 411 473 40,000  Level Salt Lake Center
Fri 01:03:27 PM 40.9883 -112.5428 181° South 415 478 40,000  Level Salt Lake Center
Fri 01:04:28 PM 40.8728 -112.5481 182° South 420 483 40,000  Level Salt Lake Center
Fri 01:05:30 PM 40.7583 -112.5528 182° South 414 476 40,000  Level Salt Lake Center
Fri 01:06:32 PM 40.6208 -112.5583 182° South 413 475 40,000  Level Salt Lake Center
Fri 01:07:34 PM 40.5050 -112.5631 182° South 417 480 40,000  Level Salt Lake Center
Fri 01:08:36 PM 40.3900 -112.5686 182° South 416 479 40,000  Level Salt Lake Center
Fri 01:09:38 PM 40.2747 -112.5719 181° South 415 478 40,000  Level Salt Lake Center
Fri 01:10:39 PM 40.1594 -112.5769 182° South 414 476 40,000  Level Salt Lake Center
Fri 01:11:41 PM 40.0444 -112.5814 182° South 414 476 40,000  Level Salt Lake Center
Fri 01:12:43 PM 39.9097 -112.6047 188° South 410 472 40,000  Level Salt Lake Center
Fri 01:13:45 PM 39.8053 -112.6497 198° South 398 458 40,000  Level Salt Lake Center
Fri 01:14:47 PM 39.7014 -112.6897 197° South 400 460 40,000  Level Salt Lake Center
Fri 01:15:49 PM 39.5961 -112.7333 198° South 398 458 40,000  Level Salt Lake Center
Fri 01:16:51 PM 39.4903 -112.7664 194° South 391 450 40,000  Level Salt Lake Center
Fri 01:17:53 PM 39.3639 -112.8208 198° South 398 458 40,000  Level Salt Lake Center
Fri 01:18:54 PM 39.2578 -112.8625 197° South 400 460 40,000  Level Salt Lake Center
Fri 01:19:56 PM 39.1508 -112.9053 197° South 403 464 40,000  Level Salt Lake Center
Fri 01:20:58 PM 39.0456 -112.9464 197° South 398 458 40,000  Level Salt Lake Center
Fri 01:22:00 PM 38.9392 -112.9867 196° South 399 459 40,000  Level Salt Lake Center
Fri 01:23:02 PM 38.8319 -113.0258 196° South 400 460 40,000  Level Salt Lake Center
Fri 01:24:04 PM 38.7253 -113.0719 199° South 404 465 40,000  Level Salt Lake Center
Fri 01:25:05 PM 38.5956 -113.1181 196° South 404 465 40,000  Level Salt Lake Center
Fri 01:26:07 PM 38.4883 -113.1631 198° South 406 467 40,000  Level Salt Lake Center
Fri 01:27:09 PM 38.3797 -113.2042 197° South 407 468 40,000  Level Salt Lake Center
Fri 01:28:11 PM 38.2703 -113.2447 196° South 410 472 40,000  Level Salt Lake Center
Fri 01:29:13 PM 38.1619 -113.2864 197° South 409 471 40,000  Level Salt Lake Center
Fri 01:30:15 PM 38.0528 -113.3289 197° South 412 474 40,000  Level Salt Lake Center
Fri 01:31:17 PM 37.9211 -113.3781 196° South 414 476 40,000  Level Salt Lake Center
Fri 01:32:18 PM 37.8200 -113.4400 206° Southwest 407 468 40,000  Level Salt Lake Center
Fri 01:33:20 PM 37.7206 -113.5081 208° Southwest 408 470 40,000  Level Salt Lake Center
Fri 01:34:39 PM 37.5803 -113.6017 208° Southwest 411 473 40,000  Level Los Angeles Center
Fri 01:35:24 PM 37.5194 -113.6417 208° Southwest 411 473 40,000  Level Salt Lake Center
Fri 01:36:26 PM 37.3992 -113.7231 208° Southwest 411 473 40,000  Level Salt Lake Center
Fri 01:36:56 PM 37.3594 -113.7489 207° Southwest 410 472 40,000  Level Los Angeles Center
Fri 01:37:58 PM 37.2586 -113.8153 208° Southwest 411 473 40,000  Level Los Angeles Center
Fri 01:39:00 PM 37.1614 -113.8789 208° Southwest 401 461 40,000  Level Los Angeles Center
Fri 01:40:02 PM 37.0489 -113.9519 207° Southwest 389 448 40,000  Level Los Angeles Center
Fri 01:41:04 PM 36.9531 -114.0131 207° Southwest 386 444 40,000  Level Los Angeles Center
Fri 01:42:06 PM 36.8575 -114.0714 206° Southwest 384 442 40,000  Level Los Angeles Center
Fri 01:43:08 PM 36.7642 -114.1347 209° Southwest 382 440 40,000  Level Los Angeles Center
Fri 01:44:10 PM 36.6742 -114.2014 211° Southwest 381 438 40,000  Level Los Angeles Center
Fri 01:45:12 PM 36.5783 -114.2558 205° Southwest 379 436 40,000  Level Los Angeles Center
Fri 01:46:14 PM 36.4656 -114.3286 207° Southwest 378 435 40,000  Level Los Angeles Center
Fri 01:47:16 PM 36.3739 -114.3894 208° Southwest 375 432 40,000 -240 Level Los Angeles Center
Fri 01:48:19 PM 36.2803 -114.4486 207° Southwest 375 432 39,500 -912 Descending Los Angeles Center
Fri 01:49:21 PM 36.1844 -114.5100 207° Southwest 383 441 38,100 -1,355 Descending Los Angeles Center
Fri 01:50:23 PM 36.0817 -114.5753 207° Southwest 404 465 36,700 -1,355 Descending Los Angeles Center
Fri 01:51:25 PM 35.9756 -114.6439 208° Southwest 424 488 35,300 -1,258 Descending Los Angeles Center
Fri 01:52:27 PM 35.8675 -114.7125 207° Southwest 432 497 34,100 -1,258 Descending Los Angeles Center
Fri 01:53:29 PM 35.7372 -114.7947 207° Southwest 435 501 32,700 -1,016 Descending Los Angeles Center
Fri 01:54:31 PM 35.6297 -114.8631 207° Southwest 433 498 32,000 -339 Descending Los Angeles Center
Fri 01:55:33 PM 35.5208 -114.9322 207° Southwest 438 504 32,000  Level Los Angeles Center
Fri 01:56:35 PM 35.4189 -114.9972 207° Southwest 420 483 32,000 -48 Level Los Angeles Center
Fri 01:57:37 PM 35.3172 -115.0603 207° Southwest 410 472 31,900 -672 Descending Los Angeles Center
Fri 01:58:40 PM 35.2169 -115.1222 207° Southwest 406 467 30,600 -1,344 Descending Los Angeles Center
Fri 01:59:42 PM 35.0975 -115.1939 206° Southwest 398 458 29,100 -1,306 Descending Los Angeles Center
Fri 02:00:44 PM 34.9942 -115.2364 199° South 394 453 27,900 -1,210 Descending Los Angeles Center
Fri 02:01:46 PM 34.8947 -115.2792 199° South 383 441 26,600 -1,210 Descending Los Angeles Center
Fri 02:02:48 PM 34.7958 -115.3225 200° South 378 435 25,400 -1,210 Descending Los Angeles Center
Fri 02:03:50 PM 34.6947 -115.3658 199° South 383 441 24,100 -677 Descending Los Angeles Center
Fri 02:04:52 PM 34.5806 -115.4172 200° South 413 475 24,000 -48 Descending Los Angeles Center
Fri 02:05:55 PM 34.4697 -115.4653 200° South 422 486 24,000 -48 Level Los Angeles Center
Fri 02:06:57 PM 34.3369 -115.5239 200° South 424 488 23,900 -1,113 Descending Los Angeles Center
Fri 02:07:59 PM 34.2503 -115.6103 219° Southwest 409 471 21,700 -2,323 Descending Los Angeles Center
Fri 02:09:01 PM 34.1744 -115.6983 224° Southwest 385 443 19,100 -2,565 Descending Los Angeles Center
Fri 02:10:03 PM 34.1003 -115.7806 223° Southwest 366 421 16,400 -2,516 Descending Los Angeles Center
Fri 02:11:05 PM 34.0169 -115.8461 213° Southwest 360 414 13,900 -2,371 Descending Los Angeles Center
Fri 02:12:07 PM 33.9392 -115.9072 213° Southwest 345 397 11,500 -1,403 Descending Los Angeles Center
Fri 02:13:09 PM 33.8961 -116.0211 246° West 334 384 11,000 -290 Descending Los Angeles Center
Fri 02:14:11 PM 33.8883 -116.1292 265° West 328 377 10,900 -1,016 Descending Los Angeles Center
Fri 02:15:13 PM 33.8497 -116.2117 241° Southwest 298 343 8,900 -2,064 Descending Los Angeles Center
Fri 02:16:16 PM 33.8153 -116.2908 242° Southwest 281 323 6,600 -1,769 Descending Los Angeles Center
Fri 02:18:06 PM 33.7500 -116.3667 224° Southwest 201 231 3,800 -1,537 Descending Southern California TRACON
Fri 02:19:00 PM 33.7500 -116.4167 270° West 178 205 2,400 -1,316 Descending Southern California TRACON
Fri 02:20:00 PM 33.7833 -116.4667 309° West 152 175 1,300 -793 Descending Southern California TRACON
Fri 02:21:01 PM 33.8167 -116.4833 337° Northwest 135 155 800 -492 Descending Southern California TRACON
Fri 02:23:00 PM 33.8167 -116.5000 253° West  Level FlightAware Approximate
Fri 02:30:00 PM 33.8297 -116.5067 253° West  Level Estimated

Login

Don't have an account? Register now (free) for customized features, flight alerts, and more!